createdAt,value
2023-05-06T00:01:36.589Z,3.63
2023-05-06T00:04:03.405Z,4.00
2023-05-06T00:06:30.090Z,3.92
2023-05-06T00:08:56.532Z,4.10
2023-05-06T00:11:22.992Z,3.90
2023-05-06T00:13:49.471Z,4.20
2023-05-06T00:16:16.067Z,4.25
2023-05-06T00:18:42.701Z,4.85
2023-05-06T00:21:09.303Z,4.25
2023-05-06T00:23:35.790Z,4.45
2023-05-06T00:26:02.439Z,4.82
2023-05-06T00:28:29.041Z,4.45
2023-05-06T00:30:55.493Z,4.82
2023-05-06T00:33:21.981Z,4.78
2023-05-06T00:35:48.760Z,4.50
2023-05-06T00:38:15.553Z,4.55
2023-05-06T00:40:42.104Z,5.53
2023-05-06T00:43:08.925Z,4.78
2023-05-06T00:45:35.526Z,5.10
2023-05-06T00:48:04.259Z,4.85
2023-05-06T00:50:32.600Z,4.65
2023-05-06T00:52:59.988Z,5.07
2023-05-06T00:55:27.411Z,5.40
2023-05-06T00:57:54.520Z,5.07
2023-05-06T01:00:21.619Z,5.32
2023-05-06T01:02:48.887Z,5.22
2023-05-06T01:05:22.461Z,4.93
2023-05-06T01:07:55.539Z,5.55
2023-05-06T01:10:36.503Z,5.78
2023-05-06T01:13:10.028Z,5.32
2023-05-06T01:15:47.950Z,4.88
2023-05-06T01:18:20.919Z,5.38
2023-05-06T01:20:52.495Z,5.35
2023-05-06T01:23:19.801Z,5.22
2023-05-06T01:25:46.371Z,5.55
2023-05-06T01:28:13.651Z,5.85
2023-05-06T01:30:57.818Z,4.93
2023-05-06T01:34:08.940Z,5.38
2023-05-06T01:37:01.208Z,5.65
2023-05-06T01:39:30.817Z,5.45
2023-05-06T01:42:00.759Z,5.15
2023-05-06T01:44:31.896Z,5.65
2023-05-06T01:46:58.369Z,5.55
2023-05-06T01:49:26.246Z,5.43
2023-05-06T01:51:53.646Z,5.40
2023-05-06T01:54:20.327Z,5.43
2023-05-06T01:56:46.914Z,5.68
2023-05-06T01:59:13.421Z,5.10
2023-05-06T02:01:39.935Z,6.05
2023-05-06T02:04:06.637Z,5.22
2023-05-06T02:06:33.182Z,5.63
2023-05-06T02:08:59.728Z,5.70
2023-05-06T02:11:26.278Z,6.18
2023-05-06T02:13:52.816Z,6.30
2023-05-06T02:16:19.292Z,5.80
2023-05-06T02:18:45.898Z,5.85
2023-05-06T02:21:12.506Z,5.65
2023-05-06T02:23:39.008Z,6.15
2023-05-06T02:26:05.653Z,6.18
2023-05-06T02:28:32.123Z,5.75
2023-05-06T02:30:59.119Z,6.25
2023-05-06T02:33:26.281Z,5.43
2023-05-06T02:35:52.746Z,6.53
2023-05-06T02:38:19.805Z,5.72
2023-05-06T02:40:46.299Z,6.20
2023-05-06T02:43:12.949Z,5.82
2023-05-06T02:45:39.539Z,6.05
2023-05-06T02:48:06.564Z,6.07
2023-05-06T02:50:35.373Z,6.22
2023-05-06T02:53:01.821Z,5.95
2023-05-06T02:55:28.334Z,6.53
2023-05-06T02:57:54.765Z,6.22
2023-05-06T03:00:21.254Z,5.93
2023-05-06T03:02:47.762Z,6.75
2023-05-06T03:05:14.290Z,5.78
2023-05-06T03:07:41.123Z,5.75
2023-05-06T03:10:08.093Z,5.95
2023-05-06T03:12:34.856Z,6.03
2023-05-06T03:15:01.425Z,5.82
2023-05-06T03:17:27.982Z,5.78
2023-05-06T03:19:54.537Z,6.25
2023-05-06T03:22:20.987Z,6.10
2023-05-06T03:24:47.457Z,6.30
2023-05-06T03:27:14.074Z,5.97
2023-05-06T03:29:40.551Z,5.95
2023-05-06T03:32:07.184Z,6.28
2023-05-06T03:34:33.654Z,6.35
2023-05-06T03:37:00.548Z,6.60
2023-05-06T03:39:27.195Z,6.10
2023-05-06T03:41:53.826Z,5.60
2023-05-06T03:44:20.310Z,5.78
2023-05-06T03:46:46.817Z,5.93
2023-05-06T03:49:13.382Z,5.70
2023-05-06T03:51:40.169Z,5.97
2023-05-06T03:54:06.719Z,5.95
2023-05-06T03:56:33.162Z,5.97
2023-05-06T03:58:59.685Z,5.90
2023-05-06T04:01:26.212Z,6.38
2023-05-06T04:03:54.490Z,6.75
2023-05-06T04:06:21.152Z,6.43
2023-05-06T04:08:47.767Z,6.65
2023-05-06T04:11:14.497Z,6.75
2023-05-06T04:13:40.965Z,7.05
2023-05-06T04:16:07.767Z,7.68
2023-05-06T04:18:34.351Z,6.07
2023-05-06T04:21:00.960Z,7.90
2023-05-06T04:23:27.637Z,7.60
2023-05-06T04:25:54.260Z,6.90
2023-05-06T04:28:20.756Z,6.97
2023-05-06T04:30:47.288Z,6.35
2023-05-06T04:33:13.857Z,6.80
2023-05-06T04:35:41.078Z,6.88
2023-05-06T04:38:07.641Z,6.30
2023-05-06T04:40:36.761Z,6.97
2023-05-06T04:45:29.942Z,5.90
2023-05-06T04:47:56.673Z,6.78
2023-05-06T04:50:23.221Z,6.72
2023-05-06T04:52:49.820Z,6.20
2023-05-06T04:55:16.305Z,6.68
2023-05-06T04:57:42.771Z,6.57
2023-05-06T05:00:10.842Z,6.53
2023-05-06T05:02:37.820Z,6.78
2023-05-06T05:05:04.761Z,6.97
2023-05-06T05:07:31.219Z,7.35
2023-05-06T05:09:57.687Z,7.53
2023-05-06T05:12:24.255Z,7.18
2023-05-06T05:14:51.300Z,7.68
2023-05-06T05:17:17.870Z,8.18
2023-05-06T05:19:44.413Z,7.80
2023-05-06T05:22:11.208Z,8.20
2023-05-06T05:24:37.719Z,7.80
2023-05-06T05:27:04.236Z,8.43
2023-05-06T05:29:30.856Z,8.63
2023-05-06T05:31:57.379Z,8.77
2023-05-06T05:34:23.922Z,9.00
2023-05-06T05:36:50.469Z,7.72
2023-05-06T05:39:16.984Z,8.48
2023-05-06T05:41:43.685Z,9.15
2023-05-06T05:44:10.556Z,9.05
2023-05-06T05:46:37.163Z,9.00
2023-05-06T05:49:03.696Z,9.07
2023-05-06T05:51:31.127Z,8.98
2023-05-06T05:53:57.704Z,9.90
2023-05-06T05:56:24.262Z,8.98
2023-05-06T05:58:50.953Z,9.93
2023-05-06T06:01:17.757Z,9.20
2023-05-06T06:03:44.586Z,8.82
2023-05-06T06:06:12.027Z,9.18
2023-05-06T06:08:50.838Z,8.93
2023-05-06T06:11:17.368Z,8.93
2023-05-06T06:13:43.840Z,9.23
2023-05-06T06:16:11.090Z,9.43
2023-05-06T06:18:37.721Z,10.38
2023-05-06T06:21:04.353Z,9.95
2023-05-06T06:23:30.952Z,9.27
2023-05-06T06:25:57.477Z,9.10
2023-05-06T06:28:24.000Z,10.18
2023-05-06T06:30:50.786Z,10.27
2023-05-06T06:33:17.352Z,10.65
2023-05-06T06:35:43.874Z,10.10
2023-05-06T06:38:10.462Z,9.10
2023-05-06T06:40:36.940Z,9.38
2023-05-06T06:43:03.544Z,9.48
2023-05-06T06:45:30.152Z,9.70
2023-05-06T06:47:56.740Z,10.27
2023-05-06T06:50:23.373Z,9.65
2023-05-06T06:52:49.939Z,9.98
2023-05-06T06:55:16.468Z,10.07
2023-05-06T06:57:43.007Z,10.45
2023-05-06T07:00:10.278Z,10.48
2023-05-06T07:02:36.812Z,10.07
2023-05-06T07:05:04.135Z,9.55
2023-05-06T07:07:30.797Z,10.20
2023-05-06T07:09:58.018Z,9.48
2023-05-06T07:12:26.677Z,10.75
2023-05-06T07:14:53.175Z,10.15
2023-05-06T07:17:19.870Z,9.73
2023-05-06T07:19:46.435Z,10.35
2023-05-06T07:22:13.125Z,11.15
2023-05-06T07:24:39.675Z,11.38
2023-05-06T07:27:06.447Z,10.55
2023-05-06T07:29:34.822Z,11.27
2023-05-06T07:32:01.364Z,9.93
2023-05-06T07:34:27.868Z,10.88
2023-05-06T07:36:54.426Z,10.27
2023-05-06T07:39:21.136Z,10.15
2023-05-06T07:41:47.829Z,10.77
2023-05-06T07:44:14.263Z,10.07
2023-05-06T07:46:40.951Z,9.80
2023-05-06T07:49:07.679Z,10.57
2023-05-06T07:51:34.232Z,10.25
2023-05-06T07:54:00.748Z,10.98
2023-05-06T07:56:27.249Z,10.55
2023-05-06T07:58:54.083Z,10.40
2023-05-06T08:01:20.908Z,10.60
2023-05-06T08:03:47.512Z,10.85
2023-05-06T08:06:14.210Z,10.68
2023-05-06T08:08:40.712Z,10.95
2023-05-06T08:11:07.175Z,10.98
2023-05-06T08:13:33.673Z,11.73
2023-05-06T08:16:02.358Z,11.02
2023-05-06T08:18:29.215Z,10.95
2023-05-06T08:20:55.976Z,11.77
2023-05-06T08:23:22.596Z,11.98
2023-05-06T08:25:49.258Z,11.68
2023-05-06T08:28:15.949Z,11.57
2023-05-06T08:30:42.484Z,11.45
2023-05-06T08:33:09.140Z,11.63
2023-05-06T08:35:35.751Z,12.02
2023-05-06T08:38:02.274Z,11.73
2023-05-06T08:40:32.665Z,12.50
2023-05-06T08:42:59.877Z,12.18
2023-05-06T08:45:28.769Z,11.52
2023-05-06T08:47:56.224Z,11.68
2023-05-06T08:50:23.566Z,11.52
2023-05-06T08:52:50.876Z,11.82
2023-05-06T08:55:19.337Z,11.80
2023-05-06T08:57:46.457Z,10.68
2023-05-06T09:00:13.575Z,10.85
2023-05-06T09:02:42.909Z,10.38
2023-05-06T09:05:11.378Z,10.77
2023-05-06T09:07:38.178Z,10.02
2023-05-06T09:10:13.215Z,10.48
2023-05-06T09:12:40.085Z,9.82
2023-05-06T09:15:07.278Z,10.48
2023-05-06T09:17:33.901Z,10.63
2023-05-06T09:20:00.542Z,10.48
2023-05-06T09:22:28.938Z,10.57
2023-05-06T09:24:59.309Z,9.85
2023-05-06T09:27:28.295Z,10.43
2023-05-06T09:30:02.055Z,9.73
2023-05-06T09:32:29.482Z,10.30
2023-05-06T09:34:56.465Z,10.02
2023-05-06T09:37:23.381Z,9.48
2023-05-06T09:39:54.591Z,10.43
2023-05-06T09:42:26.243Z,9.73
2023-05-06T09:45:02.677Z,10.63
2023-05-06T09:47:34.546Z,10.30
2023-05-06T09:50:02.771Z,10.27
2023-05-06T09:52:30.166Z,10.05
2023-05-06T09:54:57.675Z,9.57
2023-05-06T09:57:24.704Z,9.88
2023-05-06T09:59:54.662Z,9.50
2023-05-06T10:02:23.878Z,9.75
2023-05-06T10:04:51.161Z,10.00
2023-05-06T10:07:22.807Z,10.73
2023-05-06T10:09:51.400Z,9.68
2023-05-06T10:14:46.176Z,9.50
2023-05-06T10:17:13.985Z,9.32
2023-05-06T10:19:44.911Z,9.85
2023-05-06T10:22:18.916Z,9.90
2023-05-06T10:25:12.483Z,9.13
2023-05-06T10:27:43.501Z,10.10
2023-05-06T10:30:13.304Z,8.88
2023-05-06T10:32:43.558Z,8.18
2023-05-06T10:35:27.503Z,8.88
2023-05-06T10:37:56.600Z,8.40
2023-05-06T10:40:23.942Z,8.32
2023-05-06T10:42:51.500Z,8.27
2023-05-06T10:45:19.127Z,7.85
2023-05-06T10:47:54.813Z,7.60
2023-05-06T10:50:25.694Z,7.75
2023-05-06T10:52:57.709Z,8.88
2023-05-06T10:55:35.301Z,7.88
2023-05-06T10:58:16.053Z,7.63
2023-05-06T11:00:54.142Z,7.88
2023-05-06T11:03:24.006Z,7.57
2023-05-06T11:05:52.060Z,7.15
2023-05-06T11:08:24.233Z,6.78
2023-05-06T11:10:51.304Z,6.15
2023-05-06T11:13:21.296Z,6.95
2023-05-06T11:15:52.120Z,6.15
2023-05-06T11:18:24.686Z,6.40
2023-05-06T11:20:52.073Z,6.32
2023-05-06T11:23:19.095Z,6.43
2023-05-06T11:25:47.245Z,5.43
2023-05-06T11:28:14.860Z,5.13
2023-05-06T11:30:43.901Z,5.50
2023-05-06T11:33:19.012Z,5.72
2023-05-06T11:35:46.195Z,5.07
2023-05-06T11:38:12.716Z,5.28
2023-05-06T11:40:41.876Z,5.97
2023-05-06T11:43:15.736Z,5.65
2023-05-06T11:45:49.911Z,6.20
2023-05-06T11:48:18.030Z,6.53
2023-05-06T11:50:48.707Z,5.93
2023-05-06T11:53:19.411Z,5.45
2023-05-06T11:55:46.606Z,6.40
2023-05-06T11:58:24.421Z,5.78
2023-05-06T12:00:54.583Z,5.68
2023-05-06T12:03:22.089Z,6.80
2023-05-06T12:05:50.085Z,6.30
2023-05-06T12:08:27.245Z,6.43
2023-05-06T12:10:58.695Z,6.53
2023-05-06T12:13:25.568Z,6.30
2023-05-06T12:15:54.535Z,4.65
2023-05-06T12:18:22.076Z,4.88
2023-05-06T12:20:48.584Z,5.05
2023-05-06T12:23:16.154Z,4.88
2023-05-06T12:25:44.715Z,6.07
2023-05-06T12:28:18.241Z,6.30
2023-05-06T12:30:45.910Z,5.63
2023-05-06T12:33:12.932Z,4.97
2023-05-06T12:35:40.817Z,5.65
2023-05-06T12:38:08.655Z,5.53
2023-05-06T12:40:35.483Z,5.55
2023-05-06T12:43:01.997Z,5.13
2023-05-06T12:45:28.687Z,5.20
2023-05-06T12:48:08.395Z,4.32
2023-05-06T12:50:37.874Z,5.05
2023-05-06T12:53:05.651Z,5.00
2023-05-06T12:55:33.093Z,5.47
2023-05-06T12:58:00.119Z,6.22
2023-05-06T13:00:26.699Z,6.03
2023-05-06T13:02:53.291Z,6.10
2023-05-06T13:05:19.880Z,5.47
2023-05-06T13:07:46.406Z,5.63
2023-05-06T13:10:13.135Z,5.50
2023-05-06T13:12:39.924Z,6.00
2023-05-06T13:15:07.694Z,6.20
2023-05-06T13:17:34.164Z,6.75
2023-05-06T13:20:01.550Z,5.15
2023-05-06T13:22:28.670Z,6.55
2023-05-06T13:24:55.138Z,5.78
2023-05-06T13:27:21.832Z,5.13
2023-05-06T13:29:48.267Z,6.78
2023-05-06T13:32:14.761Z,5.28
2023-05-06T13:34:41.254Z,6.20
2023-05-06T13:37:07.752Z,5.82
2023-05-06T13:39:34.417Z,6.30
2023-05-06T13:42:02.920Z,6.00
2023-05-06T13:44:29.705Z,6.35
2023-05-06T13:46:56.318Z,5.95
2023-05-06T13:49:22.939Z,5.60
2023-05-06T13:51:49.891Z,4.70
2023-05-06T13:54:16.425Z,4.18
2023-05-06T13:56:43.055Z,4.07
2023-05-06T13:59:11.879Z,3.38
2023-05-06T14:01:38.810Z,2.95
2023-05-06T14:04:05.591Z,2.95
2023-05-06T14:06:32.170Z,3.00
2023-05-06T14:08:58.648Z,2.55
2023-05-06T14:11:25.220Z,2.78
2023-05-06T14:13:51.704Z,2.35
2023-05-06T14:16:18.245Z,2.28
2023-05-06T14:18:44.813Z,2.10
2023-05-06T14:21:11.284Z,2.35
2023-05-06T14:23:37.946Z,1.77
2023-05-06T14:26:04.512Z,1.63
2023-05-06T14:28:30.965Z,1.90
2023-05-06T14:30:58.131Z,1.92
2023-05-06T14:33:24.707Z,1.88
2023-05-06T14:35:52.784Z,1.73
2023-05-06T14:38:19.906Z,2.00
2023-05-06T14:40:46.490Z,2.13
2023-05-06T14:43:13.049Z,2.10
2023-05-06T14:45:39.582Z,2.40
2023-05-06T14:48:06.786Z,1.90
2023-05-06T14:50:33.343Z,1.40
2023-05-06T14:53:00.576Z,1.55
2023-05-06T14:55:28.747Z,2.25
2023-05-06T14:57:55.291Z,2.15
2023-05-06T15:00:21.806Z,1.73
2023-05-06T15:02:48.336Z,1.83
2023-05-06T15:05:15.158Z,1.67
2023-05-06T15:07:42.142Z,1.70
2023-05-06T15:10:09.047Z,1.65
2023-05-06T15:12:36.715Z,1.52
2023-05-06T15:15:05.155Z,1.75
2023-05-06T15:17:32.529Z,1.38
2023-05-06T15:19:59.134Z,2.53
2023-05-06T15:22:25.661Z,3.20
2023-05-06T15:24:52.236Z,2.40
2023-05-06T15:27:18.757Z,2.10
2023-05-06T15:29:45.368Z,1.92
2023-05-06T15:32:11.856Z,1.85
2023-05-06T15:34:38.375Z,1.73
2023-05-06T15:37:05.072Z,1.85
2023-05-06T15:39:37.001Z,1.88
2023-05-06T15:42:04.293Z,2.20
2023-05-06T15:44:32.385Z,1.83
2023-05-06T15:46:59.073Z,2.13
2023-05-06T15:49:51.044Z,1.77
2023-05-06T15:52:12.470Z,1.77
2023-05-06T15:54:39.993Z,1.85
2023-05-06T15:57:07.724Z,1.80
2023-05-06T15:59:34.358Z,2.00
2023-05-06T16:05:57.540Z,1.92
2023-05-06T16:08:24.057Z,1.98
2023-05-06T16:10:51.467Z,1.75
2023-05-06T16:13:20.162Z,1.85
2023-05-06T16:15:47.224Z,1.92
2023-05-06T16:18:13.854Z,1.90
2023-05-06T16:20:40.777Z,2.40
2023-05-06T16:23:07.381Z,1.98
2023-05-06T16:25:34.027Z,1.85
2023-05-06T16:28:00.777Z,2.30
2023-05-06T16:30:27.255Z,1.73
2023-05-06T16:32:53.899Z,2.03
2023-05-06T16:35:20.716Z,1.92
2023-05-06T16:37:47.253Z,2.20
2023-05-06T16:40:14.927Z,1.77
2023-05-06T16:42:41.581Z,1.30
2023-05-06T16:45:08.468Z,1.77
2023-05-06T16:47:35.358Z,1.85
2023-05-06T16:50:02.854Z,1.67
2023-05-06T16:52:30.882Z,1.33
2023-05-06T16:54:57.570Z,1.73
2023-05-06T16:57:23.998Z,1.52
2023-05-06T16:59:50.540Z,1.65
2023-05-06T17:02:17.042Z,1.75
2023-05-06T17:04:43.577Z,1.52
2023-05-06T17:07:11.151Z,1.38
2023-05-06T17:09:38.849Z,1.55
2023-05-06T17:12:07.398Z,1.45
2023-05-06T17:17:04.228Z,1.42
2023-05-06T17:19:30.789Z,1.23
2023-05-06T17:21:57.889Z,1.45
2023-05-06T17:24:26.745Z,1.70
2023-05-06T17:26:53.257Z,1.75
2023-05-06T17:29:22.148Z,1.60
2023-05-06T17:31:49.675Z,1.63
2023-05-06T17:34:16.695Z,1.38
2023-05-06T17:36:43.344Z,1.40
2023-05-06T17:39:09.860Z,1.63
2023-05-06T17:41:36.442Z,1.52
2023-05-06T17:44:03.012Z,1.38
2023-05-06T17:46:29.616Z,1.52
2023-05-06T17:48:56.168Z,1.83
2023-05-06T17:51:22.763Z,1.73
2023-05-06T17:53:49.245Z,1.50
2023-05-06T17:56:16.558Z,1.48
2023-05-06T17:58:43.061Z,1.77
2023-05-06T18:01:09.713Z,1.73
2023-05-06T18:03:36.343Z,1.92
2023-05-06T18:06:03.095Z,1.85
2023-05-06T18:08:29.583Z,2.15
2023-05-06T18:10:56.158Z,2.13
2023-05-06T18:13:23.195Z,2.05
2023-05-06T18:15:49.788Z,2.13
2023-05-06T18:18:16.490Z,2.70
2023-05-06T18:20:42.998Z,2.60
2023-05-06T18:23:09.477Z,3.00
2023-05-06T18:25:35.947Z,3.25
2023-05-06T18:28:04.853Z,3.30
2023-05-06T18:30:31.422Z,3.40
2023-05-06T18:32:58.046Z,3.80
2023-05-06T18:35:24.680Z,3.75
2023-05-06T18:37:51.100Z,3.85
2023-05-06T18:40:17.864Z,3.95
2023-05-06T18:42:44.416Z,4.20
2023-05-06T18:45:12.034Z,4.22
2023-05-06T18:47:40.178Z,4.82
2023-05-06T18:50:08.295Z,4.55
2023-05-06T18:52:37.458Z,4.60
2023-05-06T18:55:05.376Z,5.20
2023-05-06T18:57:32.182Z,4.90
2023-05-06T18:59:58.655Z,4.85
2023-05-06T19:02:25.453Z,5.30
2023-05-06T19:04:52.087Z,5.88
2023-05-06T19:07:18.615Z,4.82
2023-05-06T19:09:45.460Z,5.53
2023-05-06T19:12:11.994Z,5.10
2023-05-06T19:14:38.600Z,5.90
2023-05-06T19:17:05.203Z,5.07
2023-05-06T19:19:31.899Z,5.80
2023-05-06T19:21:59.102Z,5.30
2023-05-06T19:26:52.435Z,5.25
2023-05-06T19:29:19.079Z,5.20
2023-05-06T19:31:45.558Z,5.72
2023-05-06T19:34:12.047Z,5.15
2023-05-06T19:36:38.562Z,5.35
2023-05-06T19:39:05.058Z,5.57
2023-05-06T19:41:31.570Z,5.40
2023-05-06T19:43:58.093Z,6.15
2023-05-06T19:46:24.664Z,7.20
2023-05-06T19:48:51.219Z,5.93
2023-05-06T19:51:17.675Z,5.45
2023-05-06T19:53:44.239Z,5.38
2023-05-06T19:56:12.607Z,5.63
2023-05-06T19:58:40.016Z,5.40
2023-05-06T20:01:06.540Z,5.53
2023-05-06T20:03:33.690Z,4.78
2023-05-06T20:06:00.770Z,5.75
2023-05-06T20:08:27.342Z,5.78
2023-05-06T20:10:54.024Z,6.43
2023-05-06T20:13:20.913Z,5.95
2023-05-06T20:15:48.745Z,6.38
2023-05-06T20:18:15.423Z,6.68
2023-05-06T20:20:43.237Z,7.30
2023-05-06T20:23:09.806Z,8.45
2023-05-06T20:25:37.459Z,7.82
2023-05-06T20:28:06.538Z,8.02
2023-05-06T20:30:33.731Z,8.35
2023-05-06T20:33:00.320Z,8.20
2023-05-06T20:35:27.195Z,9.35
2023-05-06T20:37:54.624Z,9.30
2023-05-06T20:40:21.686Z,9.52
2023-05-06T20:42:48.431Z,9.85
2023-05-06T20:45:15.004Z,9.60
2023-05-06T20:47:41.709Z,10.77
2023-05-06T20:50:08.622Z,9.32
2023-05-06T20:52:35.136Z,9.00
2023-05-06T20:55:02.077Z,9.73
2023-05-06T20:57:28.639Z,8.57
2023-05-06T20:59:56.136Z,7.80
2023-05-06T21:02:22.741Z,7.97
2023-05-06T21:04:49.515Z,7.18
2023-05-06T21:07:16.006Z,6.60
2023-05-06T21:09:42.494Z,6.93
2023-05-06T21:12:09.395Z,7.13
2023-05-06T21:14:35.860Z,7.25
2023-05-06T21:17:02.453Z,6.40
2023-05-06T21:19:28.987Z,6.53
2023-05-06T21:21:56.826Z,6.45
2023-05-06T21:24:23.348Z,6.32
2023-05-06T21:26:51.262Z,7.05
2023-05-06T21:29:17.749Z,6.43
2023-05-06T21:31:44.185Z,7.15
2023-05-06T21:34:10.650Z,6.85
2023-05-06T21:36:37.154Z,6.97
2023-05-06T21:39:08.353Z,7.53
2023-05-06T21:41:36.222Z,6.97
2023-05-06T21:44:07.917Z,6.82
2023-05-06T21:46:35.211Z,7.05
2023-05-06T21:49:02.045Z,6.93
2023-05-06T21:51:32.241Z,6.85
2023-05-06T21:53:58.930Z,7.22
2023-05-06T21:56:25.516Z,6.35
2023-05-06T21:58:53.272Z,6.47
2023-05-06T22:01:19.838Z,6.50
2023-05-06T22:03:48.371Z,6.88
2023-05-06T22:06:15.564Z,6.65
2023-05-06T22:08:42.387Z,6.15
2023-05-06T22:11:09.183Z,6.82
2023-05-06T22:13:36.203Z,6.90
2023-05-06T22:16:03.240Z,6.63
2023-05-06T22:18:30.016Z,6.88
2023-05-06T22:20:57.779Z,6.88
2023-05-06T22:23:25.468Z,6.65
2023-05-06T22:25:52.148Z,6.15
2023-05-06T22:28:19.365Z,5.80
2023-05-06T22:30:46.049Z,6.38
2023-05-06T22:33:12.748Z,6.35
2023-05-06T22:35:39.265Z,6.10
2023-05-06T22:38:05.931Z,6.50
2023-05-06T22:40:32.476Z,6.40
2023-05-06T22:42:59.040Z,6.22
2023-05-06T22:45:26.389Z,6.43
2023-05-06T22:47:52.954Z,5.65
2023-05-06T22:50:19.444Z,5.80
2023-05-06T22:52:46.009Z,6.22
2023-05-06T22:55:12.731Z,6.20
2023-05-06T22:57:39.468Z,6.07
2023-05-06T23:00:08.771Z,5.40
2023-05-06T23:02:35.310Z,6.07
2023-05-06T23:05:01.892Z,6.13
2023-05-06T23:07:28.446Z,5.07
2023-05-06T23:09:55.088Z,5.22
2023-05-06T23:12:21.672Z,5.03
2023-05-06T23:14:48.184Z,5.43
2023-05-06T23:17:14.827Z,5.00
2023-05-06T23:19:41.366Z,4.85
2023-05-06T23:22:07.947Z,4.03
2023-05-06T23:24:34.464Z,4.43
2023-05-06T23:27:01.382Z,3.88
2023-05-06T23:29:27.845Z,4.47
2023-05-06T23:31:57.343Z,4.30
2023-05-06T23:34:23.821Z,4.63
2023-05-06T23:36:50.619Z,3.95
2023-05-06T23:39:17.542Z,4.13
2023-05-06T23:41:44.356Z,4.63
2023-05-06T23:44:10.865Z,4.20
2023-05-06T23:46:37.434Z,4.72
2023-05-06T23:49:05.321Z,4.07
2023-05-06T23:51:32.674Z,4.38
2023-05-06T23:53:59.197Z,4.25
2023-05-06T23:56:25.711Z,4.50
2023-05-06T23:58:52.240Z,4.30
